sensor_id;sensor_type;location;lat;lon;timestamp;P1;durP1;ratioP1;P2;durP2;ratioP2
5953;SDS011;3002;42.642;24.812;2023-05-29T00:01:31;5.53;;;2.00;;
5953;SDS011;3002;42.642;24.812;2023-05-29T00:03:56;3.97;;;1.70;;
5953;SDS011;3002;42.642;24.812;2023-05-29T00:06:22;8.27;;;2.40;;
5953;SDS011;3002;42.642;24.812;2023-05-29T00:08:48;4.63;;;1.60;;
5953;SDS011;3002;42.642;24.812;2023-05-29T00:11:13;7.20;;;1.63;;
5953;SDS011;3002;42.642;24.812;2023-05-29T00:13:39;3.97;;;1.50;;
5953;SDS011;3002;42.642;24.812;2023-05-29T00:16:05;4.17;;;1.50;;
5953;SDS011;3002;42.642;24.812;2023-05-29T00:18:30;4.73;;;1.63;;
5953;SDS011;3002;42.642;24.812;2023-05-29T00:20:56;6.30;;;1.90;;
5953;SDS011;3002;42.642;24.812;2023-05-29T00:23:21;3.53;;;1.30;;
5953;SDS011;3002;42.642;24.812;2023-05-29T00:25:47;4.20;;;1.77;;
5953;SDS011;3002;42.642;24.812;2023-05-29T00:28:12;4.20;;;1.43;;
5953;SDS011;3002;42.642;24.812;2023-05-29T00:30:38;6.43;;;1.80;;
5953;SDS011;3002;42.642;24.812;2023-05-29T00:33:04;4.20;;;1.90;;
5953;SDS011;3002;42.642;24.812;2023-05-29T00:35:30;4.90;;;1.13;;
5953;SDS011;3002;42.642;24.812;2023-05-29T00:37:55;4.10;;;1.90;;
5953;SDS011;3002;42.642;24.812;2023-05-29T00:40:22;3.70;;;1.67;;
5953;SDS011;3002;42.642;24.812;2023-05-29T00:42:47;4.50;;;1.33;;
5953;SDS011;3002;42.642;24.812;2023-05-29T00:45:13;5.60;;;1.67;;
5953;SDS011;3002;42.642;24.812;2023-05-29T00:47:57;3.80;;;1.40;;
5953;SDS011;3002;42.642;24.812;2023-05-29T00:50:23;4.37;;;1.57;;
5953;SDS011;3002;42.642;24.812;2023-05-29T00:52:48;5.17;;;1.67;;
5953;SDS011;3002;42.642;24.812;2023-05-29T00:55:15;4.53;;;1.90;;
5953;SDS011;3002;42.642;24.812;2023-05-29T00:57:41;4.37;;;1.70;;
5953;SDS011;3002;42.642;24.812;2023-05-29T01:00:07;4.90;;;1.80;;
5953;SDS011;3002;42.642;24.812;2023-05-29T01:02:38;4.00;;;1.63;;
5953;SDS011;3002;42.642;24.812;2023-05-29T01:05:13;3.93;;;1.60;;
5953;SDS011;3002;42.642;24.812;2023-05-29T01:07:40;4.73;;;1.53;;
5953;SDS011;3002;42.642;24.812;2023-05-29T01:10:06;8.63;;;2.27;;
5953;SDS011;3002;42.642;24.812;2023-05-29T01:15:18;3.50;;;1.37;;
5953;SDS011;3002;42.642;24.812;2023-05-29T01:20:44;4.30;;;1.57;;
5953;SDS011;3002;42.642;24.812;2023-05-29T01:28:32;6.63;;;1.90;;
5953;SDS011;3002;42.642;24.812;2023-05-29T01:31:02;3.33;;;1.27;;
5953;SDS011;3002;42.642;24.812;2023-05-29T01:33:29;4.20;;;1.60;;
5953;SDS011;3002;42.642;24.812;2023-05-29T01:35:55;8.63;;;2.17;;
5953;SDS011;3002;42.642;24.812;2023-05-29T01:38:20;7.73;;;2.23;;
5953;SDS011;3002;42.642;24.812;2023-05-29T01:40:46;4.40;;;2.13;;
5953;SDS011;3002;42.642;24.812;2023-05-29T01:43:12;3.37;;;1.37;;
5953;SDS011;3002;42.642;24.812;2023-05-29T01:45:38;4.80;;;1.80;;
5953;SDS011;3002;42.642;24.812;2023-05-29T01:48:04;5.37;;;2.30;;
5953;SDS011;3002;42.642;24.812;2023-05-29T01:50:31;4.10;;;1.70;;
5953;SDS011;3002;42.642;24.812;2023-05-29T01:52:56;3.40;;;1.60;;
5953;SDS011;3002;42.642;24.812;2023-05-29T01:55:22;7.83;;;2.27;;
5953;SDS011;3002;42.642;24.812;2023-05-29T01:57:48;4.53;;;2.00;;
5953;SDS011;3002;42.642;24.812;2023-05-29T02:00:16;6.17;;;1.83;;
5953;SDS011;3002;42.642;24.812;2023-05-29T02:02:42;4.60;;;1.83;;
5953;SDS011;3002;42.642;24.812;2023-05-29T02:05:08;7.43;;;2.60;;
5953;SDS011;3002;42.642;24.812;2023-05-29T02:07:34;5.73;;;2.03;;
5953;SDS011;3002;42.642;24.812;2023-05-29T02:10:02;3.97;;;1.70;;
5953;SDS011;3002;42.642;24.812;2023-05-29T02:12:28;19.63;;;3.30;;
5953;SDS011;3002;42.642;24.812;2023-05-29T02:14:54;5.73;;;2.30;;
5953;SDS011;3002;42.642;24.812;2023-05-29T02:17:19;4.23;;;1.70;;
5953;SDS011;3002;42.642;24.812;2023-05-29T02:19:45;5.37;;;1.90;;
5953;SDS011;3002;42.642;24.812;2023-05-29T02:22:10;3.63;;;1.70;;
5953;SDS011;3002;42.642;24.812;2023-05-29T02:24:36;4.70;;;2.13;;
5953;SDS011;3002;42.642;24.812;2023-05-29T02:27:01;6.80;;;2.00;;
5953;SDS011;3002;42.642;24.812;2023-05-29T02:29:28;4.83;;;2.50;;
5953;SDS011;3002;42.642;24.812;2023-05-29T02:31:53;3.80;;;1.70;;
5953;SDS011;3002;42.642;24.812;2023-05-29T02:34:19;4.83;;;1.53;;
5953;SDS011;3002;42.642;24.812;2023-05-29T02:36:47;5.30;;;2.00;;
5953;SDS011;3002;42.642;24.812;2023-05-29T02:39:13;5.93;;;1.87;;
5953;SDS011;3002;42.642;24.812;2023-05-29T02:41:39;3.53;;;1.73;;
5953;SDS011;3002;42.642;24.812;2023-05-29T02:44:04;10.30;;;2.23;;
5953;SDS011;3002;42.642;24.812;2023-05-29T02:46:30;4.23;;;1.70;;
5953;SDS011;3002;42.642;24.812;2023-05-29T02:48:56;11.60;;;1.53;;
5953;SDS011;3002;42.642;24.812;2023-05-29T02:51:21;3.47;;;1.77;;
5953;SDS011;3002;42.642;24.812;2023-05-29T02:53:46;4.40;;;1.93;;
5953;SDS011;3002;42.642;24.812;2023-05-29T02:56:13;5.00;;;1.80;;
5953;SDS011;3002;42.642;24.812;2023-05-29T02:58:41;5.30;;;1.83;;
5953;SDS011;3002;42.642;24.812;2023-05-29T03:01:07;4.30;;;2.00;;
5953;SDS011;3002;42.642;24.812;2023-05-29T03:03:33;4.53;;;1.90;;
5953;SDS011;3002;42.642;24.812;2023-05-29T03:05:58;6.37;;;2.40;;
5953;SDS011;3002;42.642;24.812;2023-05-29T03:08:25;5.20;;;2.20;;
5953;SDS011;3002;42.642;24.812;2023-05-29T03:10:53;4.30;;;2.10;;
5953;SDS011;3002;42.642;24.812;2023-05-29T03:13:19;5.87;;;2.23;;
5953;SDS011;3002;42.642;24.812;2023-05-29T03:15:45;4.40;;;1.87;;
5953;SDS011;3002;42.642;24.812;2023-05-29T03:18:10;5.17;;;2.27;;
5953;SDS011;3002;42.642;24.812;2023-05-29T03:20:36;9.03;;;3.20;;
5953;SDS011;3002;42.642;24.812;2023-05-29T03:23:02;8.63;;;2.10;;
5953;SDS011;3002;42.642;24.812;2023-05-29T03:25:29;4.93;;;2.10;;
5953;SDS011;3002;42.642;24.812;2023-05-29T03:27:54;5.40;;;2.20;;
5953;SDS011;3002;42.642;24.812;2023-05-29T03:30:20;3.60;;;1.80;;
5953;SDS011;3002;42.642;24.812;2023-05-29T03:32:46;5.77;;;2.73;;
5953;SDS011;3002;42.642;24.812;2023-05-29T03:35:11;6.47;;;3.07;;
5953;SDS011;3002;42.642;24.812;2023-05-29T03:37:37;6.83;;;3.20;;
5953;SDS011;3002;42.642;24.812;2023-05-29T03:40:02;6.73;;;2.60;;
5953;SDS011;3002;42.642;24.812;2023-05-29T03:42:29;5.60;;;2.10;;
5953;SDS011;3002;42.642;24.812;2023-05-29T03:44:56;4.27;;;1.93;;
5953;SDS011;3002;42.642;24.812;2023-05-29T03:47:22;8.93;;;2.80;;
5953;SDS011;3002;42.642;24.812;2023-05-29T03:49:47;5.27;;;2.27;;
5953;SDS011;3002;42.642;24.812;2023-05-29T03:52:13;5.80;;;2.60;;
5953;SDS011;3002;42.642;24.812;2023-05-29T03:54:38;6.20;;;1.53;;
5953;SDS011;3002;42.642;24.812;2023-05-29T03:57:04;5.43;;;2.33;;
5953;SDS011;3002;42.642;24.812;2023-05-29T03:59:30;6.57;;;2.33;;
5953;SDS011;3002;42.642;24.812;2023-05-29T04:01:56;5.67;;;2.10;;
5953;SDS011;3002;42.642;24.812;2023-05-29T04:04:22;9.00;;;2.60;;
5953;SDS011;3002;42.642;24.812;2023-05-29T04:06:47;5.80;;;1.90;;
5953;SDS011;3002;42.642;24.812;2023-05-29T04:09:13;5.67;;;2.60;;
5953;SDS011;3002;42.642;24.812;2023-05-29T04:11:38;4.00;;;1.80;;
5953;SDS011;3002;42.642;24.812;2023-05-29T04:14:04;4.60;;;2.00;;
5953;SDS011;3002;42.642;24.812;2023-05-29T04:16:30;5.20;;;2.13;;
5953;SDS011;3002;42.642;24.812;2023-05-29T04:18:55;9.63;;;2.50;;
5953;SDS011;3002;42.642;24.812;2023-05-29T04:21:21;13.37;;;3.07;;
5953;SDS011;3002;42.642;24.812;2023-05-29T04:23:46;10.27;;;4.20;;
5953;SDS011;3002;42.642;24.812;2023-05-29T04:26:12;7.07;;;3.40;;
5953;SDS011;3002;42.642;24.812;2023-05-29T04:28:38;5.03;;;1.90;;
5953;SDS011;3002;42.642;24.812;2023-05-29T04:31:04;4.10;;;1.40;;
5953;SDS011;3002;42.642;24.812;2023-05-29T04:33:30;5.33;;;2.30;;
5953;SDS011;3002;42.642;24.812;2023-05-29T04:35:57;4.10;;;1.50;;
5953;SDS011;3002;42.642;24.812;2023-05-29T04:38:26;4.30;;;1.63;;
5953;SDS011;3002;42.642;24.812;2023-05-29T04:40:52;9.03;;;2.57;;
5953;SDS011;3002;42.642;24.812;2023-05-29T04:43:22;5.83;;;1.90;;
5953;SDS011;3002;42.642;24.812;2023-05-29T04:45:48;17.33;;;2.80;;
5953;SDS011;3002;42.642;24.812;2023-05-29T04:48:13;22.47;;;6.10;;
5953;SDS011;3002;42.642;24.812;2023-05-29T04:50:39;8.40;;;3.10;;
5953;SDS011;3002;42.642;24.812;2023-05-29T04:53:04;7.17;;;2.70;;
5953;SDS011;3002;42.642;24.812;2023-05-29T04:55:30;4.63;;;1.80;;
5953;SDS011;3002;42.642;24.812;2023-05-29T04:57:55;8.93;;;1.97;;
5953;SDS011;3002;42.642;24.812;2023-05-29T05:00:20;6.50;;;2.47;;
5953;SDS011;3002;42.642;24.812;2023-05-29T05:02:47;10.20;;;2.70;;
5953;SDS011;3002;42.642;24.812;2023-05-29T05:05:12;4.87;;;1.47;;
5953;SDS011;3002;42.642;24.812;2023-05-29T05:07:38;4.87;;;2.37;;
5953;SDS011;3002;42.642;24.812;2023-05-29T05:10:03;4.70;;;1.70;;
5953;SDS011;3002;42.642;24.812;2023-05-29T05:12:29;4.30;;;2.00;;
5953;SDS011;3002;42.642;24.812;2023-05-29T05:14:55;4.80;;;1.93;;
5953;SDS011;3002;42.642;24.812;2023-05-29T05:17:21;6.97;;;2.23;;
5953;SDS011;3002;42.642;24.812;2023-05-29T05:19:47;7.47;;;2.90;;
5953;SDS011;3002;42.642;24.812;2023-05-29T05:22:14;9.87;;;3.17;;
5953;SDS011;3002;42.642;24.812;2023-05-29T05:24:40;8.20;;;4.17;;
5953;SDS011;3002;42.642;24.812;2023-05-29T05:27:05;9.03;;;2.87;;
5953;SDS011;3002;42.642;24.812;2023-05-29T05:29:31;6.17;;;2.90;;
5953;SDS011;3002;42.642;24.812;2023-05-29T05:31:56;9.47;;;3.00;;
5953;SDS011;3002;42.642;24.812;2023-05-29T05:34:22;8.77;;;3.13;;
5953;SDS011;3002;42.642;24.812;2023-05-29T05:36:47;6.67;;;2.70;;
5953;SDS011;3002;42.642;24.812;2023-05-29T05:39:14;6.93;;;2.40;;
5953;SDS011;3002;42.642;24.812;2023-05-29T05:41:39;6.37;;;2.60;;
5953;SDS011;3002;42.642;24.812;2023-05-29T05:44:05;7.57;;;2.90;;
5953;SDS011;3002;42.642;24.812;2023-05-29T05:46:31;8.90;;;3.47;;
5953;SDS011;3002;42.642;24.812;2023-05-29T05:48:56;7.30;;;2.70;;
5953;SDS011;3002;42.642;24.812;2023-05-29T05:51:25;8.70;;;3.10;;
5953;SDS011;3002;42.642;24.812;2023-05-29T05:53:53;7.43;;;2.90;;
5953;SDS011;3002;42.642;24.812;2023-05-29T05:56:20;7.90;;;2.00;;
5953;SDS011;3002;42.642;24.812;2023-05-29T05:58:46;5.43;;;2.70;;
5953;SDS011;3002;42.642;24.812;2023-05-29T06:01:11;13.73;;;3.07;;
5953;SDS011;3002;42.642;24.812;2023-05-29T06:03:37;6.30;;;2.53;;
5953;SDS011;3002;42.642;24.812;2023-05-29T06:06:03;36.77;;;4.30;;
5953;SDS011;3002;42.642;24.812;2023-05-29T06:08:29;5.80;;;2.43;;
5953;SDS011;3002;42.642;24.812;2023-05-29T06:10:55;7.73;;;2.70;;
5953;SDS011;3002;42.642;24.812;2023-05-29T06:13:21;8.70;;;2.30;;
5953;SDS011;3002;42.642;24.812;2023-05-29T06:15:46;4.60;;;1.53;;
5953;SDS011;3002;42.642;24.812;2023-05-29T06:18:12;4.60;;;2.00;;
5953;SDS011;3002;42.642;24.812;2023-05-29T06:20:37;4.43;;;1.77;;
5953;SDS011;3002;42.642;24.812;2023-05-29T06:23:03;4.63;;;1.87;;
5953;SDS011;3002;42.642;24.812;2023-05-29T06:25:29;7.37;;;2.50;;
5953;SDS011;3002;42.642;24.812;2023-05-29T06:28:01;10.60;;;3.10;;
5953;SDS011;3002;42.642;24.812;2023-05-29T06:30:27;4.40;;;1.77;;
5953;SDS011;3002;42.642;24.812;2023-05-29T06:32:53;8.30;;;1.90;;
5953;SDS011;3002;42.642;24.812;2023-05-29T06:35:18;5.57;;;2.23;;
5953;SDS011;3002;42.642;24.812;2023-05-29T06:37:47;6.10;;;2.50;;
5953;SDS011;3002;42.642;24.812;2023-05-29T06:40:12;8.67;;;3.10;;
5953;SDS011;3002;42.642;24.812;2023-05-29T06:42:40;5.27;;;1.60;;
5953;SDS011;3002;42.642;24.812;2023-05-29T06:45:06;6.60;;;2.40;;
5953;SDS011;3002;42.642;24.812;2023-05-29T06:47:32;4.97;;;2.10;;
5953;SDS011;3002;42.642;24.812;2023-05-29T06:49:57;4.20;;;1.67;;
5953;SDS011;3002;42.642;24.812;2023-05-29T06:52:23;8.30;;;2.00;;
5953;SDS011;3002;42.642;24.812;2023-05-29T06:54:48;4.33;;;1.70;;
5953;SDS011;3002;42.642;24.812;2023-05-29T06:57:14;4.07;;;1.70;;
5953;SDS011;3002;42.642;24.812;2023-05-29T06:59:39;6.73;;;2.00;;
5953;SDS011;3002;42.642;24.812;2023-05-29T07:02:05;6.20;;;2.03;;
5953;SDS011;3002;42.642;24.812;2023-05-29T07:04:31;4.80;;;1.77;;
5953;SDS011;3002;42.642;24.812;2023-05-29T07:06:57;10.90;;;2.57;;
5953;SDS011;3002;42.642;24.812;2023-05-29T07:09:22;5.20;;;1.60;;
5953;SDS011;3002;42.642;24.812;2023-05-29T07:11:48;5.80;;;2.23;;
5953;SDS011;3002;42.642;24.812;2023-05-29T07:14:13;7.67;;;2.80;;
5953;SDS011;3002;42.642;24.812;2023-05-29T07:16:39;5.30;;;1.70;;
5953;SDS011;3002;42.642;24.812;2023-05-29T07:19:04;8.50;;;2.63;;
5953;SDS011;3002;42.642;24.812;2023-05-29T07:21:30;5.57;;;1.67;;
5953;SDS011;3002;42.642;24.812;2023-05-29T07:23:56;6.20;;;2.47;;
5953;SDS011;3002;42.642;24.812;2023-05-29T07:26:21;4.37;;;1.80;;
5953;SDS011;3002;42.642;24.812;2023-05-29T07:28:48;6.67;;;2.33;;
5953;SDS011;3002;42.642;24.812;2023-05-29T07:31:14;6.37;;;2.63;;
5953;SDS011;3002;42.642;24.812;2023-05-29T07:33:39;5.10;;;1.63;;
5953;SDS011;3002;42.642;24.812;2023-05-29T07:36:06;4.70;;;2.10;;
5953;SDS011;3002;42.642;24.812;2023-05-29T07:38:32;5.70;;;2.00;;
5953;SDS011;3002;42.642;24.812;2023-05-29T07:40:58;5.47;;;2.50;;
5953;SDS011;3002;42.642;24.812;2023-05-29T07:43:23;7.73;;;1.80;;
5953;SDS011;3002;42.642;24.812;2023-05-29T07:45:49;4.70;;;1.73;;
5953;SDS011;3002;42.642;24.812;2023-05-29T07:48:14;5.27;;;2.20;;
5953;SDS011;3002;42.642;24.812;2023-05-29T07:50:40;6.97;;;2.63;;
5953;SDS011;3002;42.642;24.812;2023-05-29T07:53:06;5.80;;;2.10;;
5953;SDS011;3002;42.642;24.812;2023-05-29T07:55:31;5.40;;;2.40;;
5953;SDS011;3002;42.642;24.812;2023-05-29T07:57:57;5.20;;;2.00;;
5953;SDS011;3002;42.642;24.812;2023-05-29T08:00:22;5.60;;;2.67;;
5953;SDS011;3002;42.642;24.812;2023-05-29T08:02:48;5.40;;;2.33;;
5953;SDS011;3002;42.642;24.812;2023-05-29T08:05:13;5.47;;;2.37;;
5953;SDS011;3002;42.642;24.812;2023-05-29T08:07:40;7.07;;;2.10;;
5953;SDS011;3002;42.642;24.812;2023-05-29T08:10:06;5.90;;;2.93;;
5953;SDS011;3002;42.642;24.812;2023-05-29T08:12:32;8.90;;;2.20;;
5953;SDS011;3002;42.642;24.812;2023-05-29T08:15:00;6.23;;;2.70;;
5953;SDS011;3002;42.642;24.812;2023-05-29T08:17:25;6.43;;;2.53;;
5953;SDS011;3002;42.642;24.812;2023-05-29T08:19:51;5.23;;;2.20;;
5953;SDS011;3002;42.642;24.812;2023-05-29T08:22:18;24.13;;;3.80;;
5953;SDS011;3002;42.642;24.812;2023-05-29T08:24:43;6.00;;;2.43;;
5953;SDS011;3002;42.642;24.812;2023-05-29T08:27:09;4.93;;;2.17;;
5953;SDS011;3002;42.642;24.812;2023-05-29T08:29:35;6.10;;;2.47;;
5953;SDS011;3002;42.642;24.812;2023-05-29T08:32:01;6.20;;;2.47;;
5953;SDS011;3002;42.642;24.812;2023-05-29T08:34:27;4.90;;;2.00;;
5953;SDS011;3002;42.642;24.812;2023-05-29T08:36:53;6.93;;;2.37;;
5953;SDS011;3002;42.642;24.812;2023-05-29T08:39:20;4.40;;;1.57;;
5953;SDS011;3002;42.642;24.812;2023-05-29T08:41:57;5.27;;;2.17;;
5953;SDS011;3002;42.642;24.812;2023-05-29T08:44:26;4.60;;;1.97;;
5953;SDS011;3002;42.642;24.812;2023-05-29T08:46:57;7.47;;;1.80;;
5953;SDS011;3002;42.642;24.812;2023-05-29T08:49:26;4.63;;;1.83;;
5953;SDS011;3002;42.642;24.812;2023-05-29T08:52:00;4.10;;;1.63;;
5953;SDS011;3002;42.642;24.812;2023-05-29T08:54:32;5.13;;;1.73;;
5953;SDS011;3002;42.642;24.812;2023-05-29T08:56:58;5.07;;;1.97;;
5953;SDS011;3002;42.642;24.812;2023-05-29T08:59:26;4.60;;;1.57;;
5953;SDS011;3002;42.642;24.812;2023-05-29T09:01:55;5.27;;;2.27;;
5953;SDS011;3002;42.642;24.812;2023-05-29T09:04:30;5.93;;;2.30;;
5953;SDS011;3002;42.642;24.812;2023-05-29T09:06:55;4.57;;;1.97;;
5953;SDS011;3002;42.642;24.812;2023-05-29T09:09:24;4.30;;;1.63;;
5953;SDS011;3002;42.642;24.812;2023-05-29T09:11:52;6.30;;;2.17;;
5953;SDS011;3002;42.642;24.812;2023-05-29T09:17:07;5.07;;;2.10;;
5953;SDS011;3002;42.642;24.812;2023-05-29T09:19:34;4.60;;;1.33;;
5953;SDS011;3002;42.642;24.812;2023-05-29T09:22:04;4.10;;;1.50;;
5953;SDS011;3002;42.642;24.812;2023-05-29T09:24:34;4.50;;;1.60;;
5953;SDS011;3002;42.642;24.812;2023-05-29T09:27:01;4.17;;;1.50;;
5953;SDS011;3002;42.642;24.812;2023-05-29T09:29:32;5.53;;;2.00;;
5953;SDS011;3002;42.642;24.812;2023-05-29T09:31:58;5.53;;;1.47;;
5953;SDS011;3002;42.642;24.812;2023-05-29T09:34:25;6.93;;;2.13;;
5953;SDS011;3002;42.642;24.812;2023-05-29T09:37:00;7.60;;;2.20;;
5953;SDS011;3002;42.642;24.812;2023-05-29T09:39:32;6.97;;;2.30;;
5953;SDS011;3002;42.642;24.812;2023-05-29T09:41:59;5.47;;;2.47;;
5953;SDS011;3002;42.642;24.812;2023-05-29T09:44:24;5.80;;;2.40;;
5953;SDS011;3002;42.642;24.812;2023-05-29T09:46:56;4.97;;;1.70;;
5953;SDS011;3002;42.642;24.812;2023-05-29T09:49:24;4.90;;;1.87;;
5953;SDS011;3002;42.642;24.812;2023-05-29T09:51:53;5.80;;;2.27;;
5953;SDS011;3002;42.642;24.812;2023-05-29T09:54:19;11.70;;;2.63;;
5953;SDS011;3002;42.642;24.812;2023-05-29T09:56:45;5.83;;;2.57;;
5953;SDS011;3002;42.642;24.812;2023-05-29T09:59:14;5.63;;;1.97;;
5953;SDS011;3002;42.642;24.812;2023-05-29T10:01:43;6.53;;;2.43;;
5953;SDS011;3002;42.642;24.812;2023-05-29T10:04:09;5.40;;;2.30;;
5953;SDS011;3002;42.642;24.812;2023-05-29T10:06:36;5.17;;;1.97;;
5953;SDS011;3002;42.642;24.812;2023-05-29T10:09:11;4.77;;;1.80;;
5953;SDS011;3002;42.642;24.812;2023-05-29T10:11:43;16.83;;;1.90;;
5953;SDS011;3002;42.642;24.812;2023-05-29T10:14:14;7.10;;;2.20;;
5953;SDS011;3002;42.642;24.812;2023-05-29T10:16:45;6.17;;;2.10;;
5953;SDS011;3002;42.642;24.812;2023-05-29T10:19:13;7.20;;;2.57;;
5953;SDS011;3002;42.642;24.812;2023-05-29T10:21:44;7.67;;;1.80;;
5953;SDS011;3002;42.642;24.812;2023-05-29T10:24:11;12.63;;;2.90;;
5953;SDS011;3002;42.642;24.812;2023-05-29T10:26:39;5.70;;;2.53;;
5953;SDS011;3002;42.642;24.812;2023-05-29T10:32:01;12.93;;;2.97;;
5953;SDS011;3002;42.642;24.812;2023-05-29T10:34:54;4.90;;;2.10;;
5953;SDS011;3002;42.642;24.812;2023-05-29T10:38:02;4.80;;;1.90;;
5953;SDS011;3002;42.642;24.812;2023-05-29T10:40:26;9.53;;;2.50;;
5953;SDS011;3002;42.642;24.812;2023-05-29T10:42:52;6.37;;;2.67;;
5953;SDS011;3002;42.642;24.812;2023-05-29T10:47:54;4.50;;;1.53;;
5953;SDS011;3002;42.642;24.812;2023-05-29T10:53:24;5.00;;;1.50;;
5953;SDS011;3002;42.642;24.812;2023-05-29T10:55:51;6.10;;;1.87;;
5953;SDS011;3002;42.642;24.812;2023-05-29T10:58:18;5.57;;;2.07;;
5953;SDS011;3002;42.642;24.812;2023-05-29T11:00:45;3.90;;;1.50;;
5953;SDS011;3002;42.642;24.812;2023-05-29T11:03:15;4.80;;;1.77;;
5953;SDS011;3002;42.642;24.812;2023-05-29T11:11:33;4.77;;;1.40;;
5953;SDS011;3002;42.642;24.812;2023-05-29T11:14:02;3.63;;;1.10;;
5953;SDS011;3002;42.642;24.812;2023-05-29T11:18:57;5.37;;;1.47;;
5953;SDS011;3002;42.642;24.812;2023-05-29T11:21:34;4.97;;;1.33;;
5953;SDS011;3002;42.642;24.812;2023-05-29T11:24:02;3.73;;;1.20;;
5953;SDS011;3002;42.642;24.812;2023-05-29T11:26:30;3.20;;;0.80;;
5953;SDS011;3002;42.642;24.812;2023-05-29T11:29:05;4.00;;;1.10;;
5953;SDS011;3002;42.642;24.812;2023-05-29T11:31:35;4.60;;;1.30;;
5953;SDS011;3002;42.642;24.812;2023-05-29T11:34:02;4.23;;;1.43;;
5953;SDS011;3002;42.642;24.812;2023-05-29T11:36:32;3.80;;;1.17;;
5953;SDS011;3002;42.642;24.812;2023-05-29T11:39:00;3.60;;;1.10;;
5953;SDS011;3002;42.642;24.812;2023-05-29T11:41:26;3.90;;;1.43;;
5953;SDS011;3002;42.642;24.812;2023-05-29T11:43:56;3.87;;;1.17;;
5953;SDS011;3002;42.642;24.812;2023-05-29T11:46:22;4.20;;;1.40;;
5953;SDS011;3002;42.642;24.812;2023-05-29T11:48:48;3.70;;;1.20;;
5953;SDS011;3002;42.642;24.812;2023-05-29T11:51:14;3.10;;;0.73;;
5953;SDS011;3002;42.642;24.812;2023-05-29T11:53:43;3.67;;;1.17;;
5953;SDS011;3002;42.642;24.812;2023-05-29T11:56:12;3.20;;;0.87;;
5953;SDS011;3002;42.642;24.812;2023-05-29T11:58:38;4.43;;;0.90;;
5953;SDS011;3002;42.642;24.812;2023-05-29T12:01:05;4.10;;;1.30;;
5953;SDS011;3002;42.642;24.812;2023-05-29T12:03:37;3.57;;;1.00;;
5953;SDS011;3002;42.642;24.812;2023-05-29T12:06:03;3.70;;;1.00;;
5953;SDS011;3002;42.642;24.812;2023-05-29T12:08:29;4.10;;;1.30;;
5953;SDS011;3002;42.642;24.812;2023-05-29T12:10:54;3.60;;;1.00;;
5953;SDS011;3002;42.642;24.812;2023-05-29T12:13:20;3.70;;;1.10;;
5953;SDS011;3002;42.642;24.812;2023-05-29T12:15:46;4.37;;;1.10;;
5953;SDS011;3002;42.642;24.812;2023-05-29T12:18:14;3.00;;;0.70;;
5953;SDS011;3002;42.642;24.812;2023-05-29T12:20:40;3.93;;;1.00;;
5953;SDS011;3002;42.642;24.812;2023-05-29T12:23:06;3.87;;;0.90;;
5953;SDS011;3002;42.642;24.812;2023-05-29T12:25:33;10.80;;;1.70;;
5953;SDS011;3002;42.642;24.812;2023-05-29T12:28:01;3.50;;;1.03;;
5953;SDS011;3002;42.642;24.812;2023-05-29T12:30:27;3.43;;;0.90;;
5953;SDS011;3002;42.642;24.812;2023-05-29T12:32:53;3.50;;;1.03;;
5953;SDS011;3002;42.642;24.812;2023-05-29T12:35:25;3.33;;;1.00;;
5953;SDS011;3002;42.642;24.812;2023-05-29T12:37:59;3.93;;;0.90;;
5953;SDS011;3002;42.642;24.812;2023-05-29T12:45:25;3.47;;;0.80;;
5953;SDS011;3002;42.642;24.812;2023-05-29T12:50:19;3.20;;;0.80;;
5953;SDS011;3002;42.642;24.812;2023-05-29T12:52:59;3.43;;;0.93;;
5953;SDS011;3002;42.642;24.812;2023-05-29T12:55:27;3.13;;;0.73;;
5953;SDS011;3002;42.642;24.812;2023-05-29T12:57:54;4.10;;;0.80;;
5953;SDS011;3002;42.642;24.812;2023-05-29T13:00:20;4.23;;;1.17;;
5953;SDS011;3002;42.642;24.812;2023-05-29T13:02:46;3.13;;;0.70;;
5953;SDS011;3002;42.642;24.812;2023-05-29T13:05:13;3.27;;;0.60;;
5953;SDS011;3002;42.642;24.812;2023-05-29T13:07:40;3.30;;;0.83;;
5953;SDS011;3002;42.642;24.812;2023-05-29T13:10:06;4.07;;;1.03;;
5953;SDS011;3002;42.642;24.812;2023-05-29T13:12:32;3.67;;;1.27;;
5953;SDS011;3002;42.642;24.812;2023-05-29T13:14:57;4.00;;;1.03;;
5953;SDS011;3002;42.642;24.812;2023-05-29T13:17:23;3.50;;;0.90;;
5953;SDS011;3002;42.642;24.812;2023-05-29T13:19:49;4.87;;;0.90;;
5953;SDS011;3002;42.642;24.812;2023-05-29T13:22:14;3.70;;;0.80;;
5953;SDS011;3002;42.642;24.812;2023-05-29T13:24:40;3.17;;;0.77;;
5953;SDS011;3002;42.642;24.812;2023-05-29T13:27:06;22.10;;;1.73;;
5953;SDS011;3002;42.642;24.812;2023-05-29T13:29:31;4.37;;;1.00;;
5953;SDS011;3002;42.642;24.812;2023-05-29T13:31:57;3.27;;;0.90;;
5953;SDS011;3002;42.642;24.812;2023-05-29T13:34:25;3.90;;;1.10;;
5953;SDS011;3002;42.642;24.812;2023-05-29T13:36:54;3.43;;;0.90;;
5953;SDS011;3002;42.642;24.812;2023-05-29T13:39:20;3.70;;;1.20;;
5953;SDS011;3002;42.642;24.812;2023-05-29T13:41:46;3.80;;;1.20;;
5953;SDS011;3002;42.642;24.812;2023-05-29T13:44:11;3.20;;;0.80;;
5953;SDS011;3002;42.642;24.812;2023-05-29T13:46:37;3.83;;;1.20;;
5953;SDS011;3002;42.642;24.812;2023-05-29T13:49:02;3.73;;;1.10;;
5953;SDS011;3002;42.642;24.812;2023-05-29T13:51:28;5.20;;;0.80;;
5953;SDS011;3002;42.642;24.812;2023-05-29T13:53:53;8.83;;;1.27;;
5953;SDS011;3002;42.642;24.812;2023-05-29T13:56:19;3.27;;;0.80;;
5953;SDS011;3002;42.642;24.812;2023-05-29T13:58:44;7.03;;;1.50;;
5953;SDS011;3002;42.642;24.812;2023-05-29T14:01:10;3.57;;;1.00;;
5953;SDS011;3002;42.642;24.812;2023-05-29T14:03:35;4.20;;;1.10;;
5953;SDS011;3002;42.642;24.812;2023-05-29T14:06:01;3.80;;;1.20;;
5953;SDS011;3002;42.642;24.812;2023-05-29T14:08:30;3.53;;;1.00;;
5953;SDS011;3002;42.642;24.812;2023-05-29T14:10:55;6.80;;;1.30;;
5953;SDS011;3002;42.642;24.812;2023-05-29T14:13:21;3.53;;;1.00;;
5953;SDS011;3002;42.642;24.812;2023-05-29T14:15:46;4.83;;;1.40;;
5953;SDS011;3002;42.642;24.812;2023-05-29T14:18:14;4.97;;;1.50;;
5953;SDS011;3002;42.642;24.812;2023-05-29T14:20:39;3.27;;;0.90;;
5953;SDS011;3002;42.642;24.812;2023-05-29T14:23:05;4.73;;;1.17;;
5953;SDS011;3002;42.642;24.812;2023-05-29T14:25:30;3.33;;;1.10;;
5953;SDS011;3002;42.642;24.812;2023-05-29T14:27:56;4.13;;;1.03;;
5953;SDS011;3002;42.642;24.812;2023-05-29T14:30:21;4.40;;;1.47;;
5953;SDS011;3002;42.642;24.812;2023-05-29T14:32:47;3.83;;;1.23;;
5953;SDS011;3002;42.642;24.812;2023-05-29T14:35:13;4.00;;;1.20;;
5953;SDS011;3002;42.642;24.812;2023-05-29T14:37:38;3.50;;;1.20;;
5953;SDS011;3002;42.642;24.812;2023-05-29T14:40:04;4.83;;;1.60;;
5953;SDS011;3002;42.642;24.812;2023-05-29T14:42:30;13.20;;;2.23;;
5953;SDS011;3002;42.642;24.812;2023-05-29T14:44:58;4.60;;;1.70;;
5953;SDS011;3002;42.642;24.812;2023-05-29T14:47:24;4.83;;;1.73;;
5953;SDS011;3002;42.642;24.812;2023-05-29T14:49:49;8.10;;;2.30;;
5953;SDS011;3002;42.642;24.812;2023-05-29T14:52:15;8.60;;;3.13;;
5953;SDS011;3002;42.642;24.812;2023-05-29T14:54:40;4.70;;;1.90;;
5953;SDS011;3002;42.642;24.812;2023-05-29T14:57:06;5.13;;;2.03;;
5953;SDS011;3002;42.642;24.812;2023-05-29T14:59:31;5.67;;;1.93;;
5953;SDS011;3002;42.642;24.812;2023-05-29T15:01:57;6.97;;;1.67;;
5953;SDS011;3002;42.642;24.812;2023-05-29T15:04:26;4.97;;;2.17;;
5953;SDS011;3002;42.642;24.812;2023-05-29T15:06:51;4.50;;;1.43;;
5953;SDS011;3002;42.642;24.812;2023-05-29T15:09:19;6.53;;;1.87;;
5953;SDS011;3002;42.642;24.812;2023-05-29T15:11:46;6.87;;;2.10;;
5953;SDS011;3002;42.642;24.812;2023-05-29T15:14:11;5.60;;;1.80;;
5953;SDS011;3002;42.642;24.812;2023-05-29T15:16:37;4.70;;;1.27;;
5953;SDS011;3002;42.642;24.812;2023-05-29T15:19:02;4.63;;;1.57;;
5953;SDS011;3002;42.642;24.812;2023-05-29T15:21:28;5.10;;;1.63;;
5953;SDS011;3002;42.642;24.812;2023-05-29T15:23:54;4.93;;;1.60;;
5953;SDS011;3002;42.642;24.812;2023-05-29T15:26:20;22.43;;;2.07;;
5953;SDS011;3002;42.642;24.812;2023-05-29T15:28:45;4.93;;;1.77;;
5953;SDS011;3002;42.642;24.812;2023-05-29T15:31:14;3.73;;;1.33;;
5953;SDS011;3002;42.642;24.812;2023-05-29T15:33:39;5.20;;;1.90;;
5953;SDS011;3002;42.642;24.812;2023-05-29T15:36:05;12.00;;;1.90;;